Wetterdaten: Woche 28.09.15 - 04.10.15 (KW40)
Datum Zeit Temperatur Luftfeuchte Luftdruck Niederschlag Windrichtung Sonnenschein Solar Wind
28.09.2015 00:00 9,2 C 72 % 1028,4 hPa 0,0 l/m O-NO 0,00 h 0 W/m 14,9 km/h (3 Bft)
28.09.2015 01:00 8,6 C 74 % 1028,6 hPa 0,0 l/m O-NO 0,00 h 0 W/m 12,1 km/h (2 Bft)
28.09.2015 02:00 7,9 C 77 % 1028,7 hPa 0,0 l/m O-NO 0,00 h 0 W/m 11,1 km/h (2 Bft)
28.09.2015 03:00 7,1 C 80 % 1028,7 hPa 0,0 l/m NO 0,00 h 0 W/m 7,6 km/h (2 Bft)
28.09.2015 04:00 6,5 C 81 % 1028,7 hPa 0,0 l/m NO 0,00 h 0 W/m 9,6 km/h (2 Bft)
28.09.2015 05:00 6,0 C 83 % 1028,7 hPa 0,0 l/m N-NO 0,00 h 0 W/m 10,8 km/h (2 Bft)
28.09.2015 06:00 5,3 C 85 % 1029,0 hPa 0,0 l/m NO 0,00 h 0 W/m 9,3 km/h (2 Bft)
28.09.2015 07:00 5,0 C 86 % 1029,3 hPa 0,0 l/m N-NO 0,00 h 14 W/m 9,7 km/h (2 Bft)
28.09.2015 08:00 5,2 C 88 % 1029,9 hPa 0,0 l/m O-NO 0,33 h 105 W/m 11,8 km/h (2 Bft)
28.09.2015 09:00 7,0 C 85 % 1030,1 hPa 0,0 l/m O-NO 1,00 h 286 W/m 16,1 km/h (3 Bft)
28.09.2015 10:00 9,5 C 76 % 1030,2 hPa 0,0 l/m O-NO 1,00 h 441 W/m 19,4 km/h (3 Bft)
28.09.2015 11:00 11,7 C 63 % 1030,1 hPa 0,0 l/m O 0,83 h 514 W/m 28,7 km/h (4 Bft)
28.09.2015 12:00 12,5 C 55 % 1029,8 hPa 0,0 l/m O-SO 0,08 h 180 W/m 31,9 km/h (5 Bft)
28.09.2015 13:00 12,9 C 53 % 1029,8 hPa 0,0 l/m O 0,00 h 200 W/m 31,0 km/h (5 Bft)
28.09.2015 14:00 12,8 C 55 % 1029,7 hPa 0,0 l/m O 0,00 h 166 W/m 31,0 km/h (5 Bft)
28.09.2015 15:00 13,1 C 52 % 1029,4 hPa 0,0 l/m O-NO 0,00 h 176 W/m 28,2 km/h (4 Bft)
28.09.2015 16:00 13,3 C 54 % 1029,3 hPa 0,0 l/m NO 0,25 h 249 W/m 26,4 km/h (4 Bft)
28.09.2015 17:00 13,2 C 55 % 1029,2 hPa 0,0 l/m O-NO 0,33 h 158 W/m 26,0 km/h (4 Bft)
28.09.2015 18:00 12,3 C 56 % 1029,3 hPa 0,0 l/m O 0,33 h 44 W/m 18,1 km/h (3 Bft)
28.09.2015 19:00 11,5 C 59 % 1029,4 hPa 0,0 l/m O-NO 0,00 h 5 W/m 15,8 km/h (3 Bft)
28.09.2015 20:00 10,5 C 63 % 1029,5 hPa 0,0 l/m O-NO 0,00 h 0 W/m 16,0 km/h (3 Bft)
28.09.2015 21:00 9,5 C 68 % 1029,5 hPa 0,0 l/m O-NO 0,00 h 0 W/m 15,3 km/h (3 Bft)
28.09.2015 22:00 9,0 C 72 % 1029,5 hPa 0,0 l/m O-NO 0,00 h 0 W/m 16,0 km/h (3 Bft)
28.09.2015 23:00 8,8 C 74 % 1029,1 hPa 0,0 l/m O-NO 0,00 h 0 W/m 17,0 km/h (3 Bft)
29.09.2015 00:00 8,4 C 75 % 1028,8 hPa 0,0 l/m NO 0,00 h 0 W/m 17,6 km/h (3 Bft)
29.09.2015 01:00 7,8 C 77 % 1028,6 hPa 0,0 l/m NO 0,00 h 0 W/m 18,2 km/h (3 Bft)
29.09.2015 02:00 7,6 C 76 % 1028,3 hPa 0,0 l/m NO 0,00 h 0 W/m 20,5 km/h (4 Bft)
29.09.2015 03:00 7,2 C 76 % 1028,0 hPa 0,0 l/m O-NO 0,00 h 0 W/m 20,4 km/h (4 Bft)
29.09.2015 04:00 6,9 C 77 % 1027,9 hPa 0,0 l/m O-NO 0,00 h 0 W/m 17,2 km/h (3 Bft)
29.09.2015 05:00 6,8 C 77 % 1027,8 hPa 0,0 l/m O-NO 0,00 h 0 W/m 18,2 km/h (3 Bft)
29.09.2015 06:00 6,5 C 79 % 1027,7 hPa 0,0 l/m O-NO 0,00 h 0 W/m 20,0 km/h (4 Bft)
29.09.2015 07:00 6,3 C 80 % 1028,0 hPa 0,0 l/m O-NO 0,00 h 14 W/m 17,6 km/h (3 Bft)
29.09.2015 08:00 6,8 C 80 % 1028,2 hPa 0,0 l/m O-NO 0,42 h 99 W/m 19,8 km/h (4 Bft)
29.09.2015 09:00 8,1 C 76 % 1028,2 hPa 0,0 l/m O-NO 1,00 h 291 W/m 27,5 km/h (4 Bft)
29.09.2015 10:00 9,4 C 72 % 1028,2 hPa 0,0 l/m O 0,75 h 349 W/m 28,8 km/h (5 Bft)
29.09.2015 11:00 11,4 C 64 % 1028,0 hPa 0,0 l/m O 1,00 h 578 W/m 34,1 km/h (5 Bft)
29.09.2015 12:00 12,9 C 59 % 1027,5 hPa 0,0 l/m O-SO 1,00 h 645 W/m 35,5 km/h (5 Bft)
29.09.2015 13:00 13,7 C 58 % 1027,2 hPa 0,0 l/m O 1,00 h 571 W/m 28,2 km/h (4 Bft)
29.09.2015 14:00 14,4 C 54 % 1026,9 hPa 0,0 l/m O-NO 1,00 h 620 W/m 34,9 km/h (5 Bft)
29.09.2015 15:00 14,8 C 51 % 1026,5 hPa 0,0 l/m O 0,83 h 435 W/m 38,9 km/h (6 Bft)
29.09.2015 16:00 14,6 C 50 % 1026,8 hPa 0,0 l/m O 1,00 h 375 W/m 37,3 km/h (5 Bft)
29.09.2015 17:00 14,0 C 52 % 1026,9 hPa 0,0 l/m O 0,92 h 230 W/m 34,6 km/h (5 Bft)
29.09.2015 18:00 13,0 C 54 % 1027,0 hPa 0,0 l/m O 0,42 h 45 W/m 26,9 km/h (4 Bft)
29.09.2015 19:00 11,9 C 57 % 1027,1 hPa 0,0 l/m O-NO 0,00 h 5 W/m 19,3 km/h (3 Bft)
29.09.2015 20:00 11,0 C 62 % 1027,2 hPa 0,0 l/m O-NO 0,00 h 0 W/m 15,7 km/h (3 Bft)
29.09.2015 21:00 10,3 C 66 % 1027,0 hPa 0,0 l/m O-NO 0,00 h 0 W/m 16,6 km/h (3 Bft)
29.09.2015 22:00 9,7 C 69 % 1026,9 hPa 0,0 l/m O-NO 0,00 h 0 W/m 16,6 km/h (3 Bft)
29.09.2015 23:00 9,1 C 72 % 1026,8 hPa 0,0 l/m O-NO 0,00 h 0 W/m 16,2 km/h (3 Bft)
30.09.2015 00:00 8,7 C 76 % 1026,6 hPa 0,0 l/m O 0,00 h 0 W/m 20,6 km/h (4 Bft)
30.09.2015 01:00 8,3 C 78 % 1026,5 hPa 0,0 l/m O 0,00 h 0 W/m 18,6 km/h (3 Bft)
30.09.2015 02:00 7,7 C 80 % 1026,5 hPa 0,0 l/m O-NO 0,00 h 0 W/m 17,6 km/h (3 Bft)
30.09.2015 03:00 7,0 C 83 % 1026,5 hPa 0,0 l/m O-NO 0,00 h 0 W/m 12,6 km/h (3 Bft)
30.09.2015 04:00 7,0 C 85 % 1026,4 hPa 0,0 l/m O-NO 0,00 h 0 W/m 14,9 km/h (3 Bft)
30.09.2015 05:00 7,2 C 84 % 1026,3 hPa 0,0 l/m O-NO 0,00 h 0 W/m 16,4 km/h (3 Bft)
30.09.2015 06:00 6,5 C 85 % 1026,2 hPa 0,0 l/m NO 0,00 h 0 W/m 13,7 km/h (3 Bft)
30.09.2015 07:00 6,0 C 86 % 1026,6 hPa 0,0 l/m NO 0,00 h 14 W/m 12,6 km/h (3 Bft)
30.09.2015 08:00 6,2 C 87 % 1026,8 hPa 0,0 l/m NO 0,00 h 38 W/m 14,5 km/h (3 Bft)
30.09.2015 09:00 6,9 C 85 % 1027,4 hPa 0,0 l/m O-NO 0,00 h 115 W/m 22,8 km/h (4 Bft)
30.09.2015 10:00 8,2 C 80 % 1027,5 hPa 0,0 l/m O-SO 0,83 h 411 W/m 24,5 km/h (4 Bft)
30.09.2015 11:00 9,7 C 74 % 1027,5 hPa 0,0 l/m O-NO 1,00 h 548 W/m 24,0 km/h (4 Bft)
30.09.2015 12:00 10,9 C 68 % 1027,1 hPa 0,0 l/m O-NO 1,00 h 621 W/m 25,5 km/h (4 Bft)
30.09.2015 13:00 12,4 C 61 % 1026,6 hPa 0,0 l/m O 1,00 h 655 W/m 30,5 km/h (5 Bft)
30.09.2015 14:00 13,5 C 57 % 1026,1 hPa 0,0 l/m O 1,00 h 626 W/m 28,4 km/h (4 Bft)
30.09.2015 15:00 14,1 C 53 % 1025,5 hPa 0,0 l/m O-SO 1,00 h 526 W/m 28,4 km/h (4 Bft)
30.09.2015 16:00 14,5 C 50 % 1025,4 hPa 0,0 l/m O-SO 1,00 h 401 W/m 31,3 km/h (5 Bft)
30.09.2015 17:00 13,9 C 50 % 1025,4 hPa 0,0 l/m O 1,00 h 247 W/m 28,3 km/h (4 Bft)
30.09.2015 18:00 12,8 C 52 % 1025,5 hPa 0,0 l/m O 0,42 h 44 W/m 25,3 km/h (4 Bft)
30.09.2015 19:00 11,5 C 56 % 1025,9 hPa 0,0 l/m O-NO 0,00 h 5 W/m 21,2 km/h (4 Bft)
30.09.2015 20:00 10,6 C 59 % 1026,0 hPa 0,0 l/m O-NO 0,00 h 0 W/m 18,0 km/h (3 Bft)
30.09.2015 21:00 9,5 C 61 % 1026,2 hPa 0,0 l/m O-NO 0,00 h 0 W/m 18,2 km/h (3 Bft)
30.09.2015 22:00 8,6 C 63 % 1026,0 hPa 0,0 l/m O-NO 0,00 h 0 W/m 20,5 km/h (4 Bft)
30.09.2015 23:00 7,7 C 64 % 1025,6 hPa 0,0 l/m O 0,00 h 0 W/m 21,4 km/h (4 Bft)
01.10.2015 00:00 7,0 C 67 % 1025,2 hPa 0,0 l/m O-NO 0,00 h 0 W/m 16,5 km/h (3 Bft)
01.10.2015 01:00 6,2 C 71 % 1024,7 hPa 0,0 l/m O-NO 0,00 h 0 W/m 16,4 km/h (3 Bft)
01.10.2015 02:00 5,6 C 74 % 1024,0 hPa 0,0 l/m O-NO 0,00 h 0 W/m 16,4 km/h (3 Bft)
01.10.2015 03:00 5,0 C 77 % 1023,7 hPa 0,0 l/m NO 0,00 h 0 W/m 12,8 km/h (3 Bft)
01.10.2015 04:00 4,3 C 79 % 1023,4 hPa 0,0 l/m N-NO 0,00 h 0 W/m 9,0 km/h (2 Bft)
01.10.2015 05:00 3,4 C 83 % 1023,0 hPa 0,0 l/m N-NO 0,00 h 0 W/m 11,0 km/h (2 Bft)
01.10.2015 06:00 2,8 C 85 % 1023,1 hPa 0,0 l/m N-NO 0,00 h 0 W/m 11,0 km/h (2 Bft)
01.10.2015 07:00 2,5 C 87 % 1023,0 hPa 0,0 l/m NO 0,08 h 14 W/m 9,1 km/h (2 Bft)
01.10.2015 08:00 2,9 C 88 % 1023,2 hPa 0,0 l/m NO 0,00 h 74 W/m 11,3 km/h (2 Bft)
01.10.2015 09:00 4,2 C 87 % 1023,5 hPa 0,0 l/m O-NO 1,00 h 256 W/m 13,8 km/h (3 Bft)
01.10.2015 10:00 6,1 C 82 % 1023,7 hPa 0,0 l/m O-NO 1,00 h 410 W/m 13,8 km/h (3 Bft)
01.10.2015 11:00 8,2 C 75 % 1023,8 hPa 0,0 l/m O 1,00 h 537 W/m 14,5 km/h (3 Bft)
01.10.2015 12:00 10,3 C 67 % 1023,9 hPa 0,0 l/m O 1,00 h 619 W/m 17,2 km/h (3 Bft)
01.10.2015 13:00 12,3 C 61 % 1024,0 hPa 0,0 l/m O-NO 1,00 h 639 W/m 15,8 km/h (3 Bft)
01.10.2015 14:00 14,0 C 55 % 1023,6 hPa 0,0 l/m O-SO 1,00 h 606 W/m 17,6 km/h (3 Bft)
01.10.2015 15:00 15,8 C 50 % 1023,5 hPa 0,0 l/m O-SO 1,00 h 524 W/m 19,0 km/h (3 Bft)
01.10.2015 16:00 16,6 C 46 % 1023,4 hPa 0,0 l/m O 1,00 h 404 W/m 19,6 km/h (3 Bft)
01.10.2015 17:00 16,0 C 47 % 1023,3 hPa 0,0 l/m O 1,00 h 241 W/m 18,0 km/h (3 Bft)
01.10.2015 18:00 14,9 C 51 % 1023,5 hPa 0,0 l/m O-NO 0,42 h 40 W/m 13,0 km/h (3 Bft)
01.10.2015 19:00 13,4 C 56 % 1023,9 hPa 0,0 l/m O-NO 0,00 h 5 W/m 7,8 km/h (2 Bft)
01.10.2015 20:00 11,9 C 61 % 1024,1 hPa 0,0 l/m O-NO 0,00 h 0 W/m 7,2 km/h (2 Bft)
01.10.2015 21:00 10,5 C 67 % 1024,1 hPa 0,0 l/m N-NO 0,00 h 0 W/m 5,5 km/h (1 Bft)
01.10.2015 22:00 9,3 C 72 % 1023,7 hPa 0,0 l/m N-NO 0,00 h 0 W/m 8,6 km/h (2 Bft)
01.10.2015 23:00 8,7 C 73 % 1023,4 hPa 0,0 l/m N-NO 0,00 h 0 W/m 11,8 km/h (2 Bft)
02.10.2015 00:00 8,3 C 74 % 1023,3 hPa 0,0 l/m N 0,00 h 0 W/m 10,2 km/h (2 Bft)
02.10.2015 01:00 7,7 C 77 % 1023,1 hPa 0,0 l/m N-NO 0,00 h 0 W/m 8,9 km/h (2 Bft)
02.10.2015 02:00 7,2 C 79 % 1023,0 hPa 0,0 l/m N-NO 0,00 h 0 W/m 5,5 km/h (1 Bft)
02.10.2015 03:00 6,8 C 81 % 1022,8 hPa 0,0 l/m N-NO 0,00 h 0 W/m 7,3 km/h (2 Bft)
02.10.2015 04:00 6,1 C 83 % 1022,5 hPa 0,0 l/m N-NO 0,00 h 0 W/m 7,9 km/h (2 Bft)
02.10.2015 05:00 5,4 C 86 % 1022,2 hPa 0,0 l/m N-NO 0,00 h 0 W/m 9,3 km/h (2 Bft)
02.10.2015 06:00 5,0 C 88 % 1022,0 hPa 0,0 l/m N-NO 0,00 h 0 W/m 4,0 km/h (1 Bft)
02.10.2015 07:00 4,7 C 89 % 1021,6 hPa 0,0 l/m N-NO 0,00 h 12 W/m 4,9 km/h (1 Bft)
02.10.2015 08:00 5,1 C 91 % 1021,5 hPa 0,0 l/m N-NO 0,17 h 85 W/m 9,3 km/h (2 Bft)
02.10.2015 09:00 6,6 C 87 % 1021,2 hPa 0,0 l/m NO 1,00 h 257 W/m 11,6 km/h (2 Bft)
02.10.2015 10:00 8,4 C 82 % 1021,0 hPa 0,0 l/m NO 1,00 h 409 W/m 10,9 km/h (2 Bft)
02.10.2015 11:00 10,7 C 77 % 1020,3 hPa 0,0 l/m O-NO 1,00 h 529 W/m 11,7 km/h (2 Bft)
02.10.2015 12:00 12,9 C 70 % 1019,4 hPa 0,0 l/m NO 1,00 h 604 W/m 12,6 km/h (3 Bft)
02.10.2015 13:00 15,0 C 63 % 1018,7 hPa 0,0 l/m NO 1,00 h 627 W/m 12,9 km/h (3 Bft)
02.10.2015 14:00 16,7 C 58 % 1017,9 hPa 0,0 l/m O-NO 1,00 h 460 W/m 15,6 km/h (3 Bft)
02.10.2015 15:00 17,3 C 57 % 1017,4 hPa 0,0 l/m O-NO 0,50 h 276 W/m 14,9 km/h (3 Bft)
02.10.2015 16:00 18,2 C 55 % 1017,0 hPa 0,0 l/m O-NO 1,00 h 408 W/m 14,0 km/h (3 Bft)
02.10.2015 17:00 18,1 C 56 % 1016,5 hPa 0,0 l/m O-NO 0,75 h 209 W/m 13,7 km/h (3 Bft)
02.10.2015 18:00 17,1 C 59 % 1016,3 hPa 0,0 l/m O 0,17 h 32 W/m 10,7 km/h (2 Bft)
02.10.2015 19:00 15,6 C 63 % 1016,3 hPa 0,0 l/m N 0,00 h 0 W/m 1,6 km/h (1 Bft)
02.10.2015 20:00 14,3 C 68 % 1016,2 hPa 0,0 l/m O 0,00 h 0 W/m 3,7 km/h (1 Bft)
02.10.2015 21:00 13,9 C 68 % 1015,8 hPa 0,0 l/m O 0,00 h 0 W/m 3,7 km/h (1 Bft)
02.10.2015 22:00 13,1 C 70 % 1015,2 hPa 0,0 l/m O 0,00 h 0 W/m 3,2 km/h (1 Bft)
02.10.2015 23:00 12,0 C 74 % 1015,1 hPa 0,0 l/m N 0,00 h 0 W/m 0,7 km/h (0 Bft)
03.10.2015 00:00 10,7 C 79 % 1015,0 hPa 0,0 l/m O 0,00 h 0 W/m 2,0 km/h (1 Bft)
03.10.2015 01:00 10,0 C 83 % 1014,9 hPa 0,0 l/m N 0,00 h 0 W/m 0,5 km/h (0 Bft)
03.10.2015 02:00 9,6 C 83 % 1014,7 hPa 0,0 l/m O 0,00 h 0 W/m 1,1 km/h (0 Bft)
03.10.2015 03:00 8,9 C 85 % 1014,9 hPa 0,0 l/m N 0,00 h 0 W/m 0,0 km/h (0 Bft)
03.10.2015 04:00 8,4 C 88 % 1014,9 hPa 0,0 l/m N 0,00 h 0 W/m 0,3 km/h (0 Bft)
03.10.2015 05:00 8,2 C 90 % 1015,0 hPa 0,0 l/m N 0,00 h 0 W/m 0,0 km/h (0 Bft)
03.10.2015 06:00 8,0 C 91 % 1015,3 hPa 0,0 l/m N 0,00 h 0 W/m 0,8 km/h (0 Bft)
03.10.2015 07:00 7,9 C 92 % 1015,7 hPa 0,0 l/m O 0,00 h 10 W/m 2,3 km/h (1 Bft)
03.10.2015 08:00 8,7 C 94 % 1016,3 hPa 0,0 l/m O-SO 0,33 h 89 W/m 5,7 km/h (1 Bft)
03.10.2015 09:00 10,2 C 94 % 1016,4 hPa 0,0 l/m S-SW 0,92 h 232 W/m 6,8 km/h (2 Bft)
03.10.2015 10:00 12,3 C 89 % 1016,4 hPa 0,0 l/m S-SW 1,00 h 383 W/m 12,6 km/h (3 Bft)
03.10.2015 11:00 14,6 C 80 % 1016,0 hPa 0,0 l/m S-SW 1,00 h 483 W/m 14,2 km/h (3 Bft)
03.10.2015 12:00 16,3 C 70 % 1015,4 hPa 0,0 l/m SW 1,00 h 539 W/m 16,2 km/h (3 Bft)
03.10.2015 13:00 18,2 C 63 % 1014,5 hPa 0,0 l/m S-SW 1,00 h 634 W/m 12,4 km/h (3 Bft)
03.10.2015 14:00 19,5 C 59 % 1013,9 hPa 0,0 l/m SW 1,00 h 576 W/m 13,3 km/h (3 Bft)
03.10.2015 15:00 20,5 C 56 % 1013,5 hPa 0,0 l/m S-SW 0,83 h 432 W/m 11,7 km/h (2 Bft)
03.10.2015 16:00 20,9 C 56 % 1013,4 hPa 0,0 l/m S-SW 0,75 h 309 W/m 11,3 km/h (2 Bft)
03.10.2015 17:00 19,7 C 59 % 1012,9 hPa 0,0 l/m SW 0,42 h 143 W/m 7,9 km/h (2 Bft)
03.10.2015 18:00 17,8 C 65 % 1013,0 hPa 0,0 l/m N 0,00 h 20 W/m 0,0 km/h (0 Bft)
03.10.2015 19:00 15,4 C 72 % 1013,2 hPa 0,0 l/m N 0,00 h 0 W/m 0,4 km/h (0 Bft)
03.10.2015 20:00 13,2 C 79 % 1013,2 hPa 0,0 l/m N 0,00 h 0 W/m 0,0 km/h (0 Bft)
03.10.2015 21:00 11,8 C 82 % 1012,8 hPa 0,0 l/m N 0,00 h 0 W/m 0,1 km/h (0 Bft)
03.10.2015 22:00 10,6 C 86 % 1012,8 hPa 0,0 l/m N 0,00 h 0 W/m 0,0 km/h (0 Bft)
03.10.2015 23:00 10,1 C 89 % 1013,2 hPa 0,0 l/m N 0,00 h 0 W/m 0,4 km/h (0 Bft)
04.10.2015 00:00 10,3 C 92 % 1013,4 hPa 0,0 l/m SW 0,00 h 0 W/m 1,2 km/h (1 Bft)
04.10.2015 01:00 10,8 C 93 % 1012,8 hPa 0,0 l/m SW 0,00 h 0 W/m 1,6 km/h (1 Bft)
04.10.2015 02:00 10,9 C 92 % 1012,6 hPa 0,0 l/m N 0,00 h 0 W/m 0,0 km/h (0 Bft)
04.10.2015 03:00 10,8 C 92 % 1012,9 hPa 0,0 l/m N 0,00 h 0 W/m 0,3 km/h (0 Bft)
04.10.2015 04:00 10,6 C 92 % 1013,3 hPa 0,0 l/m N 0,00 h 0 W/m 0,7 km/h (0 Bft)
04.10.2015 05:00 10,3 C 93 % 1013,9 hPa 0,0 l/m SW 0,00 h 0 W/m 1,5 km/h (1 Bft)
04.10.2015 06:00 10,3 C 94 % 1014,5 hPa 0,2 l/m SW 0,00 h 0 W/m 4,5 km/h (1 Bft)
04.10.2015 07:00 10,6 C 95 % 1015,5 hPa 0,0 l/m W 0,00 h 6 W/m 16,2 km/h (3 Bft)
04.10.2015 08:00 11,1 C 87 % 1016,4 hPa 0,0 l/m W 0,00 h 8 W/m 21,7 km/h (4 Bft)
04.10.2015 09:00 10,8 C 89 % 1017,9 hPa 1,0 l/m W-SW 0,00 h 27 W/m 10,6 km/h (2 Bft)
04.10.2015 10:00 10,4 C 94 % 1018,5 hPa 0,8 l/m SW 0,00 h 27 W/m 15,8 km/h (3 Bft)
04.10.2015 11:00 9,8 C 95 % 1018,6 hPa 2,2 l/m SW 0,00 h 27 W/m 18,4 km/h (3 Bft)
04.10.2015 12:00 9,8 C 96 % 1018,1 hPa 1,8 l/m SW 0,00 h 132 W/m 16,0 km/h (3 Bft)
04.10.2015 13:00 10,9 C 97 % 1017,6 hPa 0,0 l/m SW 0,50 h 397 W/m 17,3 km/h (3 Bft)
04.10.2015 14:00 12,6 C 90 % 1017,2 hPa 0,0 l/m W-SW 0,42 h 347 W/m 15,0 km/h (3 Bft)
04.10.2015 15:00 13,8 C 81 % 1016,6 hPa 0,0 l/m SW 0,58 h 289 W/m 11,1 km/h (2 Bft)
04.10.2015 16:00 14,2 C 77 % 1016,3 hPa 0,0 l/m SW 0,25 h 226 W/m 7,6 km/h (2 Bft)
04.10.2015 17:00 14,8 C 75 % 1015,9 hPa 0,0 l/m SW 0,75 h 170 W/m 3,4 km/h (1 Bft)
04.10.2015 18:00 13,6 C 78 % 1015,7 hPa 0,0 l/m N 0,25 h 29 W/m 0,0 km/h (0 Bft)
04.10.2015 19:00 11,4 C 81 % 1015,6 hPa 0,0 l/m N 0,00 h 0 W/m 0,0 km/h (0 Bft)
04.10.2015 20:00 9,5 C 85 % 1015,8 hPa 0,0 l/m N 0,00 h 0 W/m 0,0 km/h (0 Bft)
04.10.2015 21:00 8,2 C 87 % 1016,2 hPa 0,0 l/m N 0,00 h 0 W/m 0,0 km/h (0 Bft)
04.10.2015 22:00 7,3 C 90 % 1016,2 hPa 0,0 l/m N 0,00 h 0 W/m 0,0 km/h (0 Bft)
04.10.2015 23:00 6,9 C 92 % 1015,9 hPa 0,0 l/m N 0,00 h 0 W/m 0,0 km/h (0 Bft)
Min-Datum _ 01.10.15 01.10.15 04.10.15 - - - - 01.10.15
_ Min-Zeit 07:25 17:00 02:45 - - - - 21:05
Minimum _ 2,4 C 44 % 1012,5 hPa - - - - 0,0 km/h (0 Bft)
Max-Datum _ 03.10.15 04.10.15 28.09.15 04.10.15 - 28.09.15 04.10.15 29.09.15
_ Max-Zeit 15:45 12:45 11:15 11:50 - 08:40 14:00 16:45
Maximum _ 21,2 C 97 % 1030,4 hPa 2,2 l/m - 0,08 h 768 W/m 48,3 km/h
O-NO (6 Bft)
Durchschnitt _ 10,4 C 74 % 1022,4 hPa #6,0 l/m O-NO #50:50 h 282 W/m 13,9 km/h (3 Bft)